Endeavor — PHCH — position and weather

sailwx.info

Track history (hours):
 
Tides and Currents Weather Stations Pressure Air Temp Water Temp Dewpoint Dewpoint Depression Visibility Wind Speed Wind Dir Waves Ship Positions

Endeavor

Last reported at 2017-Sep-26 11:00 UTC. Time now 2017-Sep-26 11:03 UTC.
Position N 52°19' W 005°47'.

Length 136 m; draft 6.8 m.

Type: Ship (hazmat cat A). MMSI: 245222000.

Date/timePositionNaut miles runAvg speedWind from/ knotsBaromVisibWave heightAir tempDewpointWater temp
2017-Sep-26 11:00N 52°19' W 005°47'713.3
2017-Sep-26 10:30N 52°25' W 005°44'8315.1
2017-Sep-26 05:01N 53°47' W 005°26'018.1
2017-Sep-26 05:00N 53°47' W 005°26'815.1
2017-Sep-26 04:30N 53°55' W 005°24'915.0
2017-Sep-26 03:54N 54°04' W 005°23'614.8
2017-Sep-26 03:29N 54°10' W 005°22'714.7
2017-Sep-26 03:00N 54°17' W 005°20'714.6
2017-Sep-26 02:30N 54°24' W 005°19'714.7
2017-Sep-26 02:00N 54°32' W 005°19'815.6
2017-Sep-26 01:30N 54°39' W 005°19'815.8
2017-Sep-26 01:00N 54°47' W 005°20'816.0
2017-Sep-26 00:30N 54°55' W 005°20'815.6
2017-Sep-26 00:00N 55°03' W 005°17'915.3
2017-Sep-25 23:25N 55°12' W 005°13'614.8
2017-Sep-25 23:00N 55°17' W 005°09'1015.0
2017-Sep-25 22:21N 55°26' W 005°02'515.0
2017-Sep-25 22:00N 55°31' W 004°60'815.2
2017-Sep-25 21:30N 55°39' W 004°59'815.6
2017-Sep-25 21:00N 55°47' W 004°58'611.2
2017-Sep-25 20:30N 55°52' W 004°56'2 0.2
2017-Sep-25 06:38N 55°54' W 004°55'213.3
2017-Sep-25 06:30N 55°53' W 004°56'713.4
2017-Sep-25 06:00N 55°46' W 004°58'611.7
2017-Sep-25 05:30N 55°40' W 004°59'612.4
2017-Sep-25 05:00N 55°34' W 004°59'1112.2
2017-Sep-25 04:04N 55°23' W 005°01'512.3
2017-Sep-25 03:40N 55°18' W 005°02'1312.3
2017-Sep-25 02:36N 55°06' W 005°12'212.7
2017-Sep-25 02:28N 55°04' W 005°13'613.0
2017-Sep-25 02:01N 54°59' W 005°18'714.0
2017-Sep-25 01:30N 54°52' W 005°15'714.0
2017-Sep-25 01:00N 54°45' W 005°12'713.0
2017-Sep-25 00:31N 54°39' W 005°09'713.4
2017-Sep-25 00:01N 54°33' W 005°07'713.5
2017-Sep-24 23:31N 54°26' W 005°04'713.6
2017-Sep-24 23:01N 54°19' W 005°02'714.1
2017-Sep-24 22:31N 54°13' W 004°59'713.7
2017-Sep-24 21:59N 54°06' W 004°56'613.1
2017-Sep-24 21:30N 53°60' W 004°53'712.8
2017-Sep-24 20:59N 53°56' W 004°43'3713.4
2017-Sep-24 18:14N 53°37' W 003°50'313.3
2017-Sep-24 17:59N 53°35' W 003°45'613.3
2017-Sep-24 17:30N 53°34' W 003°35'713.7
2017-Sep-24 17:00N 53°33' W 003°23'612.5
2017-Sep-24 16:30N 53°31' W 003°13'613.0
2017-Sep-24 16:00N 53°28' W 003°03'2 3.5
2017-Sep-24 15:30N 53°27' W 003°01'1 1.1
2017-Sep-24 15:00N 53°28' W 003°02'0 0.2
2017-Sep-24 14:28N 53°28' W 003°01'0 0.0
2017-Sep-24 13:58N 53°28' W 003°01'0 0.0
2017-Sep-24 13:28N 53°28' W 003°01'0 0.0
2017-Sep-24 12:58N 53°28' W 003°01'0 0.0
2017-Sep-24 12:28N 53°28' W 003°01'0 0.0
2017-Sep-24 11:58N 53°28' W 003°01'0 0.0
2017-Sep-24 11:28N 53°28' W 003°01'0 0.0
2017-Sep-24 10:58N 53°28' W 003°01'0 0.0
2017-Sep-24 10:28N 53°28' W 003°01'0 0.0
2017-Sep-24 09:58N 53°28' W 003°01'0 0.0
2017-Sep-24 09:28N 53°28' W 003°01'0 0.0
2017-Sep-24 09:01N 53°28' W 003°01'0 0.0
2017-Sep-24 08:31N 53°28' W 003°01'0 0.0
2017-Sep-24 07:57N 53°28' W 003°01'0 0.0
2017-Sep-24 07:30N 53°28' W 003°01'0 0.0
2017-Sep-24 07:00N 53°28' W 003°01'0 0.0
2017-Sep-24 06:30N 53°28' W 003°01'0 0.0
2017-Sep-24 06:00N 53°28' W 003°01'0 0.0
2017-Sep-24 05:30N 53°28' W 003°01'0 0.0
2017-Sep-24 05:00N 53°28' W 003°01'0 0.0
2017-Sep-24 04:30N 53°28' W 003°01'0 0.0
2017-Sep-24 03:57N 53°28' W 003°01'0 0.0
2017-Sep-24 03:27N 53°28' W 003°01'0 0.0
2017-Sep-24 03:00N 53°28' W 003°01'0 0.0
2017-Sep-24 02:30N 53°28' W 003°01'0 0.0
2017-Sep-24 02:00N 53°28' W 003°01'0 0.0
2017-Sep-24 01:27N 53°28' W 003°01'0 0.0
2017-Sep-24 00:57N 53°28' W 003°01'0 0.0
2017-Sep-24 00:24N 53°28' W 003°01'0 0.0
2017-Sep-24 00:00N 53°28' W 003°01'0 0.0
2017-Sep-23 23:30N 53°28' W 003°01'0 0.0
2017-Sep-23 23:00N 53°28' W 003°01'0 0.0
2017-Sep-23 22:30N 53°28' W 003°01'0 0.0
2017-Sep-23 22:00N 53°28' W 003°01'0 0.0
2017-Sep-23 21:27N 53°28' W 003°01'0 0.0
2017-Sep-23 21:00N 53°28' W 003°01'0 0.0
2017-Sep-23 20:30N 53°28' W 003°01'0 0.0
2017-Sep-23 20:00N 53°28' W 003°01'  
2017-Sep-21 12:41N 46°57' W 005°03'8615.1
2017-Sep-21 07:00N 45°37' W 004°19'1115.7
2017-Sep-21 06:19N 45°27' W 004°13'515.4
2017-Sep-21 05:58N 45°22' W 004°10'7415.7
2017-Sep-21 01:14N 44°13' W 003°33'415.7
2017-Sep-21 01:00N 44°10' W 003°31'1716.1
2017-Sep-20 23:57N 43°54' W 003°22'815.9
2017-Sep-20 23:27N 43°46' W 003°18'715.9
2017-Sep-20 23:00N 43°40' W 003°14'815.9
2017-Sep-20 22:30N 43°32' W 003°10'815.7
2017-Sep-20 22:00N 43°25' W 003°06'5 9.6
2017-Sep-20 21:30N 43°21' W 003°03'0 0.5
2017-Sep-20 20:59N 43°21' W 003°03'0 0.0
2017-Sep-20 20:29N 43°21' W 003°03'0 0.0
2017-Sep-20 19:59N 43°21' W 003°03'0 0.0
2017-Sep-20 19:29N 43°21' W 003°03'0 0.0
2017-Sep-20 18:58N 43°21' W 003°03'0 0.0
2017-Sep-20 18:28N 43°21' W 003°03'0 0.0
2017-Sep-20 16:52N 43°21' W 003°03'0 0.0
2017-Sep-20 16:28N 43°21' W 003°03'0 0.0
2017-Sep-20 15:55N 43°21' W 003°03'0 0.0
2017-Sep-20 15:28N 43°21' W 003°03'0 0.0
2017-Sep-20 14:58N 43°21' W 003°03'0 0.0
2017-Sep-20 13:58N 43°21' W 003°03'0 0.0
2017-Sep-20 13:28N 43°21' W 003°03'0 0.0
2017-Sep-20 12:58N 43°21' W 003°03'0 0.0
2017-Sep-20 12:28N 43°21' W 003°03'0 0.0
2017-Sep-20 11:58N 43°21' W 003°03'0 0.0
2017-Sep-20 11:28N 43°21' W 003°03'0 0.0
2017-Sep-20 10:58N 43°21' W 003°03'0 0.0
2017-Sep-20 10:28N 43°21' W 003°03'0 0.0
2017-Sep-20 09:58N 43°21' W 003°03'0 0.0
2017-Sep-20 09:28N 43°21' W 003°03'0 0.0
2017-Sep-20 08:58N 43°21' W 003°03'0 0.0
2017-Sep-20 08:28N 43°21' W 003°03'0 0.0
2017-Sep-20 07:58N 43°21' W 003°03'0 0.0
2017-Sep-20 07:28N 43°21' W 003°03'0 0.0
2017-Sep-20 06:58N 43°21' W 003°03'0 0.0
2017-Sep-20 06:28N 43°21' W 003°03'0 0.0
2017-Sep-20 05:58N 43°21' W 003°03'0 0.0
2017-Sep-20 05:28N 43°21' W 003°03'0 0.4
2017-Sep-20 05:01N 43°21' W 003°03'4 8.3
2017-Sep-20 04:30N 43°24' W 003°06'611.7
2017-Sep-20 04:00N 43°30' W 003°09'611.9
2017-Sep-20 03:30N 43°35' W 003°12'612.0
2017-Sep-20 03:00N 43°41' W 003°15'611.9
2017-Sep-20 02:30N 43°46' W 003°18'611.7
2017-Sep-20 02:00N 43°52' W 003°21'49212.1
2017-Sep-18 09:15N 51°52' W 005°55'412.8
2017-Sep-18 08:55N 51°57' W 005°54'513.6
2017-Sep-18 08:30N 52°02' W 005°52'713.9
2017-Sep-18 08:00N 52°09' W 005°50'713.9
2017-Sep-18 07:30N 52°16' W 005°48'713.4
2017-Sep-18 07:00N 52°22' W 005°46'713.1
2017-Sep-18 06:30N 52°29' W 005°44'9415.0
2017-Sep-18 00:13N 54°02' W 005°23'315.5
2017-Sep-18 00:00N 54°06' W 005°22'815.3
2017-Sep-17 23:31N 54°13' W 005°21'815.0
2017-Sep-17 23:00N 54°21' W 005°20'714.7
2017-Sep-17 22:30N 54°28' W 005°20'714.7
2017-Sep-17 22:00N 54°35' W 005°19'815.4
2017-Sep-17 21:31N 54°43' W 005°18'815.5
2017-Sep-17 21:00N 54°51' W 005°18'815.9
2017-Sep-17 20:30N 54°59' W 005°17'4115.2
2017-Sep-17 17:50N 55°38' W 005°00'515.3
2017-Sep-17 17:30N 55°43' W 004°59'713.7
2017-Sep-17 17:00N 55°50' W 004°57'2 0.1
2017-Sep-16 16:49N 55°52' W 004°56'411.3
2017-Sep-16 16:30N 55°48' W 004°57'510.0
2017-Sep-16 15:59N 55°43' W 004°59'511.3
2017-Sep-16 15:30N 55°38' W 004°59'611.8
2017-Sep-16 14:59N 55°32' W 004°59'3411.3
2017-Sep-16 11:58N 54°59' W 005°17'612.4
2017-Sep-16 11:30N 54°54' W 005°15'612.7
2017-Sep-16 11:00N 54°47' W 005°13'  
Track history (hours):
 
Tides and Currents Weather Stations Pressure Air Temp Water Temp Dewpoint Dewpoint Depression Visibility Wind Speed Wind Dir Waves Ship Positions

Endeavor

Last reported at 2017-Sep-26 11:00 UTC. Time now 2017-Sep-26 11:03 UTC.
Position N 52°19' W 005°47'.

Length 136 m; draft 6.8 m.

Type: Ship (hazmat cat A). MMSI: 245222000.

Date/timePositionNaut miles runAvg speedWind from/ knotsBaromVisibWave heightAir tempDewpointWater temp
2017-Sep-26 11:00N 52°19' W 005°47'713.3
2017-Sep-26 10:30N 52°25' W 005°44'8315.1
2017-Sep-26 05:01N 53°47' W 005°26'018.1
2017-Sep-26 05:00N 53°47' W 005°26'815.1
2017-Sep-26 04:30N 53°55' W 005°24'915.0
2017-Sep-26 03:54N 54°04' W 005°23'614.8
2017-Sep-26 03:29N 54°10' W 005°22'714.7
2017-Sep-26 03:00N 54°17' W 005°20'714.6
2017-Sep-26 02:30N 54°24' W 005°19'714.7
2017-Sep-26 02:00N 54°32' W 005°19'815.6
2017-Sep-26 01:30N 54°39' W 005°19'815.8
2017-Sep-26 01:00N 54°47' W 005°20'816.0
2017-Sep-26 00:30N 54°55' W 005°20'815.6
2017-Sep-26 00:00N 55°03' W 005°17'915.3
2017-Sep-25 23:25N 55°12' W 005°13'614.8
2017-Sep-25 23:00N 55°17' W 005°09'1015.0
2017-Sep-25 22:21N 55°26' W 005°02'515.0
2017-Sep-25 22:00N 55°31' W 004°60'815.2
2017-Sep-25 21:30N 55°39' W 004°59'815.6
2017-Sep-25 21:00N 55°47' W 004°58'611.2
2017-Sep-25 20:30N 55°52' W 004°56'2 0.2
2017-Sep-25 06:38N 55°54' W 004°55'213.3
2017-Sep-25 06:30N 55°53' W 004°56'713.4
2017-Sep-25 06:00N 55°46' W 004°58'611.7
2017-Sep-25 05:30N 55°40' W 004°59'612.4
2017-Sep-25 05:00N 55°34' W 004°59'1112.2
2017-Sep-25 04:04N 55°23' W 005°01'512.3
2017-Sep-25 03:40N 55°18' W 005°02'1312.3
2017-Sep-25 02:36N 55°06' W 005°12'212.7
2017-Sep-25 02:28N 55°04' W 005°13'613.0
2017-Sep-25 02:01N 54°59' W 005°18'714.0
2017-Sep-25 01:30N 54°52' W 005°15'714.0
2017-Sep-25 01:00N 54°45' W 005°12'713.0
2017-Sep-25 00:31N 54°39' W 005°09'713.4
2017-Sep-25 00:01N 54°33' W 005°07'713.5
2017-Sep-24 23:31N 54°26' W 005°04'713.6
2017-Sep-24 23:01N 54°19' W 005°02'714.1
2017-Sep-24 22:31N 54°13' W 004°59'713.7
2017-Sep-24 21:59N 54°06' W 004°56'613.1
2017-Sep-24 21:30N 53°60' W 004°53'712.8
2017-Sep-24 20:59N 53°56' W 004°43'3713.4
2017-Sep-24 18:14N 53°37' W 003°50'313.3
2017-Sep-24 17:59N 53°35' W 003°45'613.3
2017-Sep-24 17:30N 53°34' W 003°35'713.7
2017-Sep-24 17:00N 53°33' W 003°23'612.5
2017-Sep-24 16:30N 53°31' W 003°13'613.0
2017-Sep-24 16:00N 53°28' W 003°03'2 3.5
2017-Sep-24 15:30N 53°27' W 003°01'1 1.1
2017-Sep-24 15:00N 53°28' W 003°02'0 0.2
2017-Sep-24 14:28N 53°28' W 003°01'0 0.0
2017-Sep-24 13:58N 53°28' W 003°01'0 0.0
2017-Sep-24 13:28N 53°28' W 003°01'0 0.0
2017-Sep-24 12:58N 53°28' W 003°01'0 0.0
2017-Sep-24 12:28N 53°28' W 003°01'0 0.0
2017-Sep-24 11:58N 53°28' W 003°01'0 0.0
2017-Sep-24 11:28N 53°28' W 003°01'0 0.0
2017-Sep-24 10:58N 53°28' W 003°01'0 0.0
2017-Sep-24 10:28N 53°28' W 003°01'0 0.0
2017-Sep-24 09:58N 53°28' W 003°01'0 0.0
2017-Sep-24 09:28N 53°28' W 003°01'0 0.0
2017-Sep-24 09:01N 53°28' W 003°01'0 0.0
2017-Sep-24 08:31N 53°28' W 003°01'0 0.0
2017-Sep-24 07:57N 53°28' W 003°01'0 0.0
2017-Sep-24 07:30N 53°28' W 003°01'0 0.0
2017-Sep-24 07:00N 53°28' W 003°01'0 0.0
2017-Sep-24 06:30N 53°28' W 003°01'0 0.0
2017-Sep-24 06:00N 53°28' W 003°01'0 0.0
2017-Sep-24 05:30N 53°28' W 003°01'0 0.0
2017-Sep-24 05:00N 53°28' W 003°01'0 0.0
2017-Sep-24 04:30N 53°28' W 003°01'0 0.0
2017-Sep-24 03:57N 53°28' W 003°01'0 0.0
2017-Sep-24 03:27N 53°28' W 003°01'0 0.0
2017-Sep-24 03:00N 53°28' W 003°01'0 0.0
2017-Sep-24 02:30N 53°28' W 003°01'0 0.0
2017-Sep-24 02:00N 53°28' W 003°01'0 0.0
2017-Sep-24 01:27N 53°28' W 003°01'0 0.0
2017-Sep-24 00:57N 53°28' W 003°01'0 0.0
2017-Sep-24 00:24N 53°28' W 003°01'0 0.0
2017-Sep-24 00:00N 53°28' W 003°01'0 0.0
2017-Sep-23 23:30N 53°28' W 003°01'0 0.0
2017-Sep-23 23:00N 53°28' W 003°01'0 0.0
2017-Sep-23 22:30N 53°28' W 003°01'0 0.0
2017-Sep-23 22:00N 53°28' W 003°01'0 0.0
2017-Sep-23 21:27N 53°28' W 003°01'0 0.0
2017-Sep-23 21:00N 53°28' W 003°01'0 0.0
2017-Sep-23 20:30N 53°28' W 003°01'0 0.0
2017-Sep-23 20:00N 53°28' W 003°01'  
2017-Sep-21 12:41N 46°57' W 005°03'8615.1
2017-Sep-21 07:00N 45°37' W 004°19'1115.7
2017-Sep-21 06:19N 45°27' W 004°13'515.4
2017-Sep-21 05:58N 45°22' W 004°10'7415.7
2017-Sep-21 01:14N 44°13' W 003°33'415.7
2017-Sep-21 01:00N 44°10' W 003°31'1716.1
2017-Sep-20 23:57N 43°54' W 003°22'815.9
2017-Sep-20 23:27N 43°46' W 003°18'715.9
2017-Sep-20 23:00N 43°40' W 003°14'815.9
2017-Sep-20 22:30N 43°32' W 003°10'815.7
2017-Sep-20 22:00N 43°25' W 003°06'5 9.6
2017-Sep-20 21:30N 43°21' W 003°03'0 0.5
2017-Sep-20 20:59N 43°21' W 003°03'0 0.0
2017-Sep-20 20:29N 43°21' W 003°03'0 0.0
2017-Sep-20 19:59N 43°21' W 003°03'0 0.0
2017-Sep-20 19:29N 43°21' W 003°03'0 0.0
2017-Sep-20 18:58N 43°21' W 003°03'0 0.0
2017-Sep-20 18:28N 43°21' W 003°03'0 0.0
2017-Sep-20 16:52N 43°21' W 003°03'0 0.0
2017-Sep-20 16:28N 43°21' W 003°03'0 0.0
2017-Sep-20 15:55N 43°21' W 003°03'0 0.0
2017-Sep-20 15:28N 43°21' W 003°03'0 0.0
2017-Sep-20 14:58N 43°21' W 003°03'0 0.0
2017-Sep-20 13:58N 43°21' W 003°03'0 0.0
2017-Sep-20 13:28N 43°21' W 003°03'0 0.0
2017-Sep-20 12:58N 43°21' W 003°03'0 0.0
2017-Sep-20 12:28N 43°21' W 003°03'0 0.0
2017-Sep-20 11:58N 43°21' W 003°03'0 0.0
2017-Sep-20 11:28N 43°21' W 003°03'0 0.0
2017-Sep-20 10:58N 43°21' W 003°03'0 0.0
2017-Sep-20 10:28N 43°21' W 003°03'0 0.0
2017-Sep-20 09:58N 43°21' W 003°03'0 0.0
2017-Sep-20 09:28N 43°21' W 003°03'0 0.0
2017-Sep-20 08:58N 43°21' W 003°03'0 0.0
2017-Sep-20 08:28N 43°21' W 003°03'0 0.0
2017-Sep-20 07:58N 43°21' W 003°03'0 0.0
2017-Sep-20 07:28N 43°21' W 003°03'0 0.0
2017-Sep-20 06:58N 43°21' W 003°03'0 0.0
2017-Sep-20 06:28N 43°21' W 003°03'0 0.0
2017-Sep-20 05:58N 43°21' W 003°03'0 0.0
2017-Sep-20 05:28N 43°21' W 003°03'0 0.4
2017-Sep-20 05:01N 43°21' W 003°03'4 8.3
2017-Sep-20 04:30N 43°24' W 003°06'611.7
2017-Sep-20 04:00N 43°30' W 003°09'611.9
2017-Sep-20 03:30N 43°35' W 003°12'612.0
2017-Sep-20 03:00N 43°41' W 003°15'611.9
2017-Sep-20 02:30N 43°46' W 003°18'611.7
2017-Sep-20 02:00N 43°52' W 003°21'49212.1
2017-Sep-18 09:15N 51°52' W 005°55'412.8
2017-Sep-18 08:55N 51°57' W 005°54'513.6
2017-Sep-18 08:30N 52°02' W 005°52'713.9
2017-Sep-18 08:00N 52°09' W 005°50'713.9
2017-Sep-18 07:30N 52°16' W 005°48'713.4
2017-Sep-18 07:00N 52°22' W 005°46'713.1
2017-Sep-18 06:30N 52°29' W 005°44'9415.0
2017-Sep-18 00:13N 54°02' W 005°23'315.5
2017-Sep-18 00:00N 54°06' W 005°22'815.3
2017-Sep-17 23:31N 54°13' W 005°21'815.0
2017-Sep-17 23:00N 54°21' W 005°20'714.7
2017-Sep-17 22:30N 54°28' W 005°20'714.7
2017-Sep-17 22:00N 54°35' W 005°19'815.4
2017-Sep-17 21:31N 54°43' W 005°18'815.5
2017-Sep-17 21:00N 54°51' W 005°18'815.9
2017-Sep-17 20:30N 54°59' W 005°17'4115.2
2017-Sep-17 17:50N 55°38' W 005°00'515.3
2017-Sep-17 17:30N 55°43' W 004°59'713.7
2017-Sep-17 17:00N 55°50' W 004°57'2 0.1
2017-Sep-16 16:49N 55°52' W 004°56'411.3
2017-Sep-16 16:30N 55°48' W 004°57'510.0
2017-Sep-16 15:59N 55°43' W 004°59'511.3
2017-Sep-16 15:30N 55°38' W 004°59'611.8
2017-Sep-16 14:59N 55°32' W 004°59'3411.3
2017-Sep-16 11:58N 54°59' W 005°17'612.4
2017-Sep-16 11:30N 54°54' W 005°15'612.7
2017-Sep-16 11:00N 54°47' W 005°13'  

Dump ship's entire track history